sensor_id;sensor_type;location;lat;lon;timestamp;temperature;humidity
19732;DHT22;10017;54.350;18.532;2022-10-31T00:01:26;8.30;99.90
19732;DHT22;10017;54.350;18.532;2022-10-31T00:04:00;8.30;99.90
19732;DHT22;10017;54.350;18.532;2022-10-31T00:06:34;8.30;99.90
19732;DHT22;10017;54.350;18.532;2022-10-31T00:09:09;8.40;99.90
19732;DHT22;10017;54.350;18.532;2022-10-31T00:11:43;8.40;99.90
19732;DHT22;10017;54.350;18.532;2022-10-31T00:14:15;8.40;99.90
19732;DHT22;10017;54.350;18.532;2022-10-31T00:16:46;8.50;99.90
19732;DHT22;10017;54.350;18.532;2022-10-31T00:19:18;8.40;99.90
19732;DHT22;10017;54.350;18.532;2022-10-31T00:21:53;8.50;99.90
19732;DHT22;10017;54.350;18.532;2022-10-31T00:24:24;8.60;99.90
19732;DHT22;10017;54.350;18.532;2022-10-31T00:26:56;8.60;99.90
19732;DHT22;10017;54.350;18.532;2022-10-31T00:29:30;8.60;99.90
19732;DHT22;10017;54.350;18.532;2022-10-31T00:32:02;8.60;99.90
19732;DHT22;10017;54.350;18.532;2022-10-31T00:34:34;8.60;99.90
19732;DHT22;10017;54.350;18.532;2022-10-31T00:37:05;8.50;99.90
19732;DHT22;10017;54.350;18.532;2022-10-31T00:39:37;8.60;99.90
19732;DHT22;10017;54.350;18.532;2022-10-31T00:42:09;8.50;99.90
19732;DHT22;10017;54.350;18.532;2022-10-31T00:44:41;8.50;99.90
19732;DHT22;10017;54.350;18.532;2022-10-31T00:47:12;8.50;99.90
19732;DHT22;10017;54.350;18.532;2022-10-31T00:49:46;8.50;99.90
19732;DHT22;10017;54.350;18.532;2022-10-31T00:52:18;8.40;99.90
19732;DHT22;10017;54.350;18.532;2022-10-31T00:54:50;8.40;99.90
19732;DHT22;10017;54.350;18.532;2022-10-31T00:57:22;8.40;99.90
19732;DHT22;10017;54.350;18.532;2022-10-31T00:59:53;8.40;99.90
19732;DHT22;10017;54.350;18.532;2022-10-31T01:02:26;8.30;99.90
19732;DHT22;10017;54.350;18.532;2022-10-31T01:05:00;8.30;99.90
19732;DHT22;10017;54.350;18.532;2022-10-31T01:07:34;8.30;99.90
19732;DHT22;10017;54.350;18.532;2022-10-31T01:10:06;8.40;99.90
19732;DHT22;10017;54.350;18.532;2022-10-31T01:15:13;8.60;99.90
19732;DHT22;10017;54.350;18.532;2022-10-31T01:17:48;8.70;99.90
19732;DHT22;10017;54.350;18.532;2022-10-31T01:20:19;8.80;99.90
19732;DHT22;10017;54.350;18.532;2022-10-31T01:22:51;8.80;99.90
19732;DHT22;10017;54.350;18.532;2022-10-31T01:25:23;9.00;99.90
19732;DHT22;10017;54.350;18.532;2022-10-31T01:27:55;9.10;99.90
19732;DHT22;10017;54.350;18.532;2022-10-31T01:30:27;9.20;99.90
19732;DHT22;10017;54.350;18.532;2022-10-31T01:32:59;9.30;99.90
19732;DHT22;10017;54.350;18.532;2022-10-31T01:35:31;9.50;99.90
19732;DHT22;10017;54.350;18.532;2022-10-31T01:38:02;9.60;99.90
19732;DHT22;10017;54.350;18.532;2022-10-31T01:40:35;9.70;99.90
19732;DHT22;10017;54.350;18.532;2022-10-31T01:43:09;9.90;99.90
19732;DHT22;10017;54.350;18.532;2022-10-31T01:45:43;10.10;99.90
19732;DHT22;10017;54.350;18.532;2022-10-31T01:48:16;10.20;99.90
19732;DHT22;10017;54.350;18.532;2022-10-31T01:50:50;10.20;99.90
19732;DHT22;10017;54.350;18.532;2022-10-31T01:53:25;10.30;99.90
19732;DHT22;10017;54.350;18.532;2022-10-31T01:55:59;10.30;99.90
19732;DHT22;10017;54.350;18.532;2022-10-31T01:58:34;10.40;99.90
19732;DHT22;10017;54.350;18.532;2022-10-31T02:01:06;10.40;99.90
19732;DHT22;10017;54.350;18.532;2022-10-31T02:03:38;10.50;99.90
19732;DHT22;10017;54.350;18.532;2022-10-31T02:06:13;10.50;99.90
19732;DHT22;10017;54.350;18.532;2022-10-31T02:08:47;10.50;99.90
19732;DHT22;10017;54.350;18.532;2022-10-31T02:11:19;10.60;99.90
19732;DHT22;10017;54.350;18.532;2022-10-31T02:13:53;10.60;99.90
19732;DHT22;10017;54.350;18.532;2022-10-31T02:16:25;10.70;99.90
19732;DHT22;10017;54.350;18.532;2022-10-31T02:18:57;10.70;99.90
19732;DHT22;10017;54.350;18.532;2022-10-31T02:26:41;10.90;99.90
19732;DHT22;10017;54.350;18.532;2022-10-31T02:31:50;11.10;99.90
19732;DHT22;10017;54.350;18.532;2022-10-31T02:39:33;11.10;99.90
19732;DHT22;10017;54.350;18.532;2022-10-31T02:47:32;11.20;99.90
19732;DHT22;10017;54.350;18.532;2022-10-31T02:50:10;11.20;99.90
19732;DHT22;10017;54.350;18.532;2022-10-31T02:52:42;11.20;99.90
19732;DHT22;10017;54.350;18.532;2022-10-31T02:57:58;11.30;99.90
19732;DHT22;10017;54.350;18.532;2022-10-31T03:00:45;11.30;99.90
19732;DHT22;10017;54.350;18.532;2022-10-31T03:06:07;11.30;99.90
19732;DHT22;10017;54.350;18.532;2022-10-31T03:08:50;11.30;99.90
19732;DHT22;10017;54.350;18.532;2022-10-31T03:11:29;11.30;99.90
19732;DHT22;10017;54.350;18.532;2022-10-31T03:14:12;11.30;99.90
19732;DHT22;10017;54.350;18.532;2022-10-31T03:16:49;11.30;99.90
19732;DHT22;10017;54.350;18.532;2022-10-31T03:19:23;11.40;99.90
19732;DHT22;10017;54.350;18.532;2022-10-31T03:21:59;11.40;99.90
19732;DHT22;10017;54.350;18.532;2022-10-31T03:24:34;11.40;99.90
19732;DHT22;10017;54.350;18.532;2022-10-31T03:27:07;11.40;99.90
19732;DHT22;10017;54.350;18.532;2022-10-31T03:29:40;11.40;99.90
19732;DHT22;10017;54.350;18.532;2022-10-31T03:32:19;11.40;99.90
19732;DHT22;10017;54.350;18.532;2022-10-31T03:34:53;11.40;99.90
19732;DHT22;10017;54.350;18.532;2022-10-31T03:37:27;11.40;99.90
19732;DHT22;10017;54.350;18.532;2022-10-31T03:39:59;11.30;99.90
19732;DHT22;10017;54.350;18.532;2022-10-31T03:42:33;11.30;99.90
19732;DHT22;10017;54.350;18.532;2022-10-31T03:47:39;11.30;99.90
19732;DHT22;10017;54.350;18.532;2022-10-31T03:50:13;11.20;99.90
19732;DHT22;10017;54.350;18.532;2022-10-31T03:52:47;11.10;99.90
19732;DHT22;10017;54.350;18.532;2022-10-31T03:55:26;11.10;99.90
19732;DHT22;10017;54.350;18.532;2022-10-31T03:58:03;11.10;99.90
19732;DHT22;10017;54.350;18.532;2022-10-31T04:00:37;11.00;99.90
19732;DHT22;10017;54.350;18.532;2022-10-31T04:03:11;10.90;99.90
19732;DHT22;10017;54.350;18.532;2022-10-31T04:05:48;10.80;99.90
19732;DHT22;10017;54.350;18.532;2022-10-31T04:08:22;10.70;99.90
19732;DHT22;10017;54.350;18.532;2022-10-31T04:10:56;10.60;99.90
19732;DHT22;10017;54.350;18.532;2022-10-31T04:13:29;10.60;99.90
19732;DHT22;10017;54.350;18.532;2022-10-31T04:16:02;10.50;99.90
19732;DHT22;10017;54.350;18.532;2022-10-31T04:18:37;10.40;99.90
19732;DHT22;10017;54.350;18.532;2022-10-31T04:21:11;10.40;99.90
19732;DHT22;10017;54.350;18.532;2022-10-31T04:23:42;10.30;99.90
19732;DHT22;10017;54.350;18.532;2022-10-31T04:26:14;10.00;99.90
19732;DHT22;10017;54.350;18.532;2022-10-31T04:28:46;9.80;99.90
19732;DHT22;10017;54.350;18.532;2022-10-31T04:31:18;9.60;99.90
19732;DHT22;10017;54.350;18.532;2022-10-31T04:33:52;9.40;99.90
19732;DHT22;10017;54.350;18.532;2022-10-31T04:36:24;9.30;99.90
19732;DHT22;10017;54.350;18.532;2022-10-31T04:38:58;9.30;99.90
19732;DHT22;10017;54.350;18.532;2022-10-31T04:41:32;9.20;99.90
19732;DHT22;10017;54.350;18.532;2022-10-31T04:44:04;9.10;99.90
19732;DHT22;10017;54.350;18.532;2022-10-31T04:46:35;9.00;99.90
19732;DHT22;10017;54.350;18.532;2022-10-31T04:49:10;9.00;99.90
19732;DHT22;10017;54.350;18.532;2022-10-31T04:51:44;9.00;99.90
19732;DHT22;10017;54.350;18.532;2022-10-31T04:54:16;9.00;99.90
19732;DHT22;10017;54.350;18.532;2022-10-31T04:56:50;9.00;99.90
19732;DHT22;10017;54.350;18.532;2022-10-31T04:59:24;9.00;99.90
19732;DHT22;10017;54.350;18.532;2022-10-31T05:01:58;9.00;99.90
19732;DHT22;10017;54.350;18.532;2022-10-31T05:04:32;9.00;99.90
19732;DHT22;10017;54.350;18.532;2022-10-31T05:07:06;9.00;99.90
19732;DHT22;10017;54.350;18.532;2022-10-31T05:09:40;8.90;99.90
19732;DHT22;10017;54.350;18.532;2022-10-31T05:12:15;9.00;99.90
19732;DHT22;10017;54.350;18.532;2022-10-31T05:14:47;9.00;99.90
19732;DHT22;10017;54.350;18.532;2022-10-31T05:17:21;9.00;99.90
19732;DHT22;10017;54.350;18.532;2022-10-31T05:19:53;9.00;99.90
19732;DHT22;10017;54.350;18.532;2022-10-31T05:22:27;9.00;99.90
19732;DHT22;10017;54.350;18.532;2022-10-31T05:24:59;9.00;99.90
19732;DHT22;10017;54.350;18.532;2022-10-31T05:27:30;9.00;99.90
19732;DHT22;10017;54.350;18.532;2022-10-31T05:30:04;9.10;99.90
19732;DHT22;10017;54.350;18.532;2022-10-31T05:35:14;9.30;99.90
19732;DHT22;10017;54.350;18.532;2022-10-31T05:37:46;9.20;99.90
19732;DHT22;10017;54.350;18.532;2022-10-31T05:40:21;9.30;99.90
19732;DHT22;10017;54.350;18.532;2022-10-31T05:42:56;9.40;99.90
19732;DHT22;10017;54.350;18.532;2022-10-31T05:45:30;9.40;99.90
19732;DHT22;10017;54.350;18.532;2022-10-31T05:48:02;9.50;99.90
19732;DHT22;10017;54.350;18.532;2022-10-31T05:50:34;9.50;99.90
19732;DHT22;10017;54.350;18.532;2022-10-31T05:53:07;9.60;99.90
19732;DHT22;10017;54.350;18.532;2022-10-31T05:55:39;9.60;99.90
19732;DHT22;10017;54.350;18.532;2022-10-31T05:58:14;9.70;99.90
19732;DHT22;10017;54.350;18.532;2022-10-31T06:00:46;9.80;99.90
19732;DHT22;10017;54.350;18.532;2022-10-31T06:03:18;9.80;99.90
19732;DHT22;10017;54.350;18.532;2022-10-31T06:05:49;9.90;99.90
19732;DHT22;10017;54.350;18.532;2022-10-31T06:08:25;9.90;99.90
19732;DHT22;10017;54.350;18.532;2022-10-31T06:10:57;10.00;99.90
19732;DHT22;10017;54.350;18.532;2022-10-31T06:13:29;10.10;99.90
19732;DHT22;10017;54.350;18.532;2022-10-31T06:16:01;10.20;99.90
19732;DHT22;10017;54.350;18.532;2022-10-31T06:18:32;10.20;99.90
19732;DHT22;10017;54.350;18.532;2022-10-31T06:21:06;10.30;99.90
19732;DHT22;10017;54.350;18.532;2022-10-31T06:23:38;10.40;99.90
19732;DHT22;10017;54.350;18.532;2022-10-31T06:26:10;10.40;99.90
19732;DHT22;10017;54.350;18.532;2022-10-31T06:28:44;10.50;99.90
19732;DHT22;10017;54.350;18.532;2022-10-31T06:31:16;10.50;99.90
19732;DHT22;10017;54.350;18.532;2022-10-31T06:33:47;10.60;99.90
19732;DHT22;10017;54.350;18.532;2022-10-31T06:36:22;10.60;99.90
19732;DHT22;10017;54.350;18.532;2022-10-31T06:38:56;10.70;99.90
19732;DHT22;10017;54.350;18.532;2022-10-31T06:41:28;10.80;99.90
19732;DHT22;10017;54.350;18.532;2022-10-31T06:44:02;10.80;99.90
19732;DHT22;10017;54.350;18.532;2022-10-31T06:46:39;10.90;99.90
19732;DHT22;10017;54.350;18.532;2022-10-31T06:49:11;11.00;99.90
19732;DHT22;10017;54.350;18.532;2022-10-31T06:51:48;11.00;99.90
19732;DHT22;10017;54.350;18.532;2022-10-31T06:54:20;11.10;99.90
19732;DHT22;10017;54.350;18.532;2022-10-31T06:56:55;11.10;99.90
19732;DHT22;10017;54.350;18.532;2022-10-31T06:59:26;11.20;99.90
19732;DHT22;10017;54.350;18.532;2022-10-31T07:01:58;11.20;99.90
19732;DHT22;10017;54.350;18.532;2022-10-31T07:04:32;11.30;99.90
19732;DHT22;10017;54.350;18.532;2022-10-31T13:11:37;13.10;99.90
19732;DHT22;10017;54.350;18.532;2022-10-31T13:14:13;13.20;99.90
19732;DHT22;10017;54.350;18.532;2022-10-31T13:16:47;13.10;99.90
19732;DHT22;10017;54.350;18.532;2022-10-31T13:19:23;13.10;99.90
19732;DHT22;10017;54.350;18.532;2022-10-31T13:24:31;13.00;99.90
19732;DHT22;10017;54.350;18.532;2022-10-31T13:27:11;13.00;99.90
19732;DHT22;10017;54.350;18.532;2022-10-31T13:30:10;13.00;99.90
19732;DHT22;10017;54.350;18.532;2022-10-31T13:32:42;13.00;99.90
19732;DHT22;10017;54.350;18.532;2022-10-31T13:35:23;13.10;99.90
19732;DHT22;10017;54.350;18.532;2022-10-31T13:40:56;13.00;99.90
19732;DHT22;10017;54.350;18.532;2022-10-31T13:46:25;13.00;99.90
19732;DHT22;10017;54.350;18.532;2022-10-31T13:52:13;13.00;99.90
19732;DHT22;10017;54.350;18.532;2022-10-31T13:54:49;12.90;99.90
19732;DHT22;10017;54.350;18.532;2022-10-31T13:57:41;12.90;99.90
19732;DHT22;10017;54.350;18.532;2022-10-31T14:00:24;12.90;99.90
19732;DHT22;10017;54.350;18.532;2022-10-31T14:02:56;12.80;99.90
19732;DHT22;10017;54.350;18.532;2022-10-31T14:05:32;12.70;99.90
19732;DHT22;10017;54.350;18.532;2022-10-31T14:08:15;12.70;99.90
19732;DHT22;10017;54.350;18.532;2022-10-31T14:10:50;12.70;99.90
19732;DHT22;10017;54.350;18.532;2022-10-31T14:13:44;12.70;99.90
19732;DHT22;10017;54.350;18.532;2022-10-31T14:16:18;12.70;99.90
19732;DHT22;10017;54.350;18.532;2022-10-31T14:19:04;12.70;99.90
19732;DHT22;10017;54.350;18.532;2022-10-31T14:21:38;12.70;99.90
19732;DHT22;10017;54.350;18.532;2022-10-31T14:29:32;12.60;99.90
19732;DHT22;10017;54.350;18.532;2022-10-31T14:32:06;12.70;99.90
19732;DHT22;10017;54.350;18.532;2022-10-31T14:34:58;12.60;99.90
19732;DHT22;10017;54.350;18.532;2022-10-31T14:40:57;12.60;99.90
19732;DHT22;10017;54.350;18.532;2022-10-31T14:46:14;12.50;99.90
19732;DHT22;10017;54.350;18.532;2022-10-31T14:48:52;12.50;99.90
19732;DHT22;10017;54.350;18.532;2022-10-31T14:51:28;12.60;99.90
19732;DHT22;10017;54.350;18.532;2022-10-31T14:54:05;12.50;99.90
19732;DHT22;10017;54.350;18.532;2022-10-31T14:56:42;12.50;99.90
19732;DHT22;10017;54.350;18.532;2022-10-31T14:59:18;12.50;99.90
19732;DHT22;10017;54.350;18.532;2022-10-31T15:01:53;12.50;99.90
19732;DHT22;10017;54.350;18.532;2022-10-31T15:04:29;12.50;99.90
19732;DHT22;10017;54.350;18.532;2022-10-31T15:07:17;12.50;99.90
19732;DHT22;10017;54.350;18.532;2022-10-31T15:09:59;12.50;99.90
19732;DHT22;10017;54.350;18.532;2022-10-31T15:12:32;12.50;99.90
19732;DHT22;10017;54.350;18.532;2022-10-31T15:15:21;12.50;99.90
19732;DHT22;10017;54.350;18.532;2022-10-31T15:17:59;12.50;99.90
19732;DHT22;10017;54.350;18.532;2022-10-31T15:20:35;12.50;99.90
19732;DHT22;10017;54.350;18.532;2022-10-31T15:23:09;12.50;99.90
19732;DHT22;10017;54.350;18.532;2022-10-31T15:25:41;12.50;99.90
19732;DHT22;10017;54.350;18.532;2022-10-31T15:28:21;12.50;99.90
19732;DHT22;10017;54.350;18.532;2022-10-31T15:30:54;12.50;99.90
19732;DHT22;10017;54.350;18.532;2022-10-31T15:33:27;12.50;99.90
19732;DHT22;10017;54.350;18.532;2022-10-31T15:36:21;12.50;99.90
19732;DHT22;10017;54.350;18.532;2022-10-31T15:39:00;12.40;99.90
19732;DHT22;10017;54.350;18.532;2022-10-31T15:41:33;12.40;99.90
19732;DHT22;10017;54.350;18.532;2022-10-31T15:44:13;12.40;99.90
19732;DHT22;10017;54.350;18.532;2022-10-31T15:46:55;12.30;99.90
19732;DHT22;10017;54.350;18.532;2022-10-31T15:49:30;12.30;99.90
19732;DHT22;10017;54.350;18.532;2022-10-31T15:52:06;12.30;99.90
19732;DHT22;10017;54.350;18.532;2022-10-31T15:54:44;12.30;99.90
19732;DHT22;10017;54.350;18.532;2022-10-31T15:57:16;12.30;99.90
19732;DHT22;10017;54.350;18.532;2022-10-31T15:59:48;12.30;99.90
19732;DHT22;10017;54.350;18.532;2022-10-31T16:02:21;12.30;99.90
19732;DHT22;10017;54.350;18.532;2022-10-31T16:04:55;12.30;99.90
19732;DHT22;10017;54.350;18.532;2022-10-31T16:07:30;12.30;99.90
19732;DHT22;10017;54.350;18.532;2022-10-31T16:10:03;12.20;99.90
19732;DHT22;10017;54.350;18.532;2022-10-31T16:12:36;12.30;99.90
19732;DHT22;10017;54.350;18.532;2022-10-31T16:15:15;12.30;99.90
19732;DHT22;10017;54.350;18.532;2022-10-31T16:17:47;12.30;99.90
19732;DHT22;10017;54.350;18.532;2022-10-31T16:20:25;12.30;99.90
19732;DHT22;10017;54.350;18.532;2022-10-31T16:22:59;12.30;99.90
19732;DHT22;10017;54.350;18.532;2022-10-31T16:25:35;12.30;99.90
19732;DHT22;10017;54.350;18.532;2022-10-31T16:28:14;12.30;99.90
19732;DHT22;10017;54.350;18.532;2022-10-31T16:30:48;12.30;99.90
19732;DHT22;10017;54.350;18.532;2022-10-31T16:33:33;12.30;99.90
19732;DHT22;10017;54.350;18.532;2022-10-31T16:39:06;12.30;99.90
19732;DHT22;10017;54.350;18.532;2022-10-31T16:41:41;12.30;99.90
19732;DHT22;10017;54.350;18.532;2022-10-31T16:44:21;12.30;99.90
19732;DHT22;10017;54.350;18.532;2022-10-31T16:49:37;12.30;99.90
19732;DHT22;10017;54.350;18.532;2022-10-31T16:52:09;12.40;99.90
19732;DHT22;10017;54.350;18.532;2022-10-31T16:54:42;12.30;99.90
19732;DHT22;10017;54.350;18.532;2022-10-31T16:57:14;12.30;99.90
19732;DHT22;10017;54.350;18.532;2022-10-31T16:59:48;12.40;99.90
19732;DHT22;10017;54.350;18.532;2022-10-31T17:02:20;12.30;99.90
19732;DHT22;10017;54.350;18.532;2022-10-31T17:04:52;12.40;99.90
19732;DHT22;10017;54.350;18.532;2022-10-31T17:07:27;12.40;99.90
19732;DHT22;10017;54.350;18.532;2022-10-31T17:10:01;12.40;99.90
19732;DHT22;10017;54.350;18.532;2022-10-31T17:12:33;12.40;99.90
19732;DHT22;10017;54.350;18.532;2022-10-31T17:15:06;12.40;99.90
19732;DHT22;10017;54.350;18.532;2022-10-31T17:17:38;12.40;99.90
19732;DHT22;10017;54.350;18.532;2022-10-31T17:20:14;12.40;99.90
19732;DHT22;10017;54.350;18.532;2022-10-31T17:22:48;12.40;99.90
19732;DHT22;10017;54.350;18.532;2022-10-31T17:25:24;12.40;99.90
19732;DHT22;10017;54.350;18.532;2022-10-31T17:27:56;12.40;99.90
19732;DHT22;10017;54.350;18.532;2022-10-31T17:30:28;12.40;99.90
19732;DHT22;10017;54.350;18.532;2022-10-31T17:33:00;12.40;99.90
19732;DHT22;10017;54.350;18.532;2022-10-31T17:35:32;12.40;99.90
19732;DHT22;10017;54.350;18.532;2022-10-31T17:38:04;12.40;99.90
19732;DHT22;10017;54.350;18.532;2022-10-31T17:40:37;12.40;99.90
19732;DHT22;10017;54.350;18.532;2022-10-31T17:43:12;12.40;99.90
19732;DHT22;10017;54.350;18.532;2022-10-31T17:45:46;12.40;99.90
19732;DHT22;10017;54.350;18.532;2022-10-31T17:48:18;12.40;99.90
19732;DHT22;10017;54.350;18.532;2022-10-31T17:50:49;12.40;99.90
19732;DHT22;10017;54.350;18.532;2022-10-31T17:53:21;12.40;99.90
19732;DHT22;10017;54.350;18.532;2022-10-31T17:55:53;12.40;99.90
19732;DHT22;10017;54.350;18.532;2022-10-31T17:58:25;12.40;99.90
19732;DHT22;10017;54.350;18.532;2022-10-31T18:00:57;12.40;99.90
19732;DHT22;10017;54.350;18.532;2022-10-31T18:03:29;12.30;99.90
19732;DHT22;10017;54.350;18.532;2022-10-31T18:06:01;12.40;99.90
19732;DHT22;10017;54.350;18.532;2022-10-31T18:08:34;12.40;99.90
19732;DHT22;10017;54.350;18.532;2022-10-31T18:11:07;12.40;99.90
19732;DHT22;10017;54.350;18.532;2022-10-31T18:13:42;12.40;99.90
19732;DHT22;10017;54.350;18.532;2022-10-31T18:16:16;12.40;99.90
19732;DHT22;10017;54.350;18.532;2022-10-31T18:18:50;12.40;99.90
19732;DHT22;10017;54.350;18.532;2022-10-31T18:21:22;12.40;99.90
19732;DHT22;10017;54.350;18.532;2022-10-31T18:23:55;12.40;99.90
19732;DHT22;10017;54.350;18.532;2022-10-31T18:26:29;12.40;99.90
19732;DHT22;10017;54.350;18.532;2022-10-31T18:29:03;12.40;99.90
19732;DHT22;10017;54.350;18.532;2022-10-31T18:31:37;12.30;99.90
19732;DHT22;10017;54.350;18.532;2022-10-31T18:34:09;12.30;99.90
19732;DHT22;10017;54.350;18.532;2022-10-31T18:36:41;12.40;99.90
19732;DHT22;10017;54.350;18.532;2022-10-31T18:39:13;12.30;99.90
19732;DHT22;10017;54.350;18.532;2022-10-31T18:41:44;12.40;99.90
19732;DHT22;10017;54.350;18.532;2022-10-31T18:44:16;12.30;99.90
19732;DHT22;10017;54.350;18.532;2022-10-31T18:46:48;12.30;99.90
19732;DHT22;10017;54.350;18.532;2022-10-31T18:49:22;12.30;99.90
19732;DHT22;10017;54.350;18.532;2022-10-31T18:51:56;12.40;99.90
19732;DHT22;10017;54.350;18.532;2022-10-31T18:54:28;12.40;99.90
19732;DHT22;10017;54.350;18.532;2022-10-31T18:56:59;12.40;99.90
19732;DHT22;10017;54.350;18.532;2022-10-31T18:59:31;12.40;99.90
19732;DHT22;10017;54.350;18.532;2022-10-31T19:02:03;12.40;99.90
19732;DHT22;10017;54.350;18.532;2022-10-31T19:04:35;12.40;99.90
19732;DHT22;10017;54.350;18.532;2022-10-31T19:07:06;12.40;99.90
19732;DHT22;10017;54.350;18.532;2022-10-31T19:09:38;12.30;99.90
19732;DHT22;10017;54.350;18.532;2022-10-31T19:12:10;12.30;99.90
19732;DHT22;10017;54.350;18.532;2022-10-31T19:14:44;12.30;99.90
19732;DHT22;10017;54.350;18.532;2022-10-31T19:17:16;12.30;99.90
19732;DHT22;10017;54.350;18.532;2022-10-31T19:19:50;12.40;99.90
19732;DHT22;10017;54.350;18.532;2022-10-31T19:22:22;12.40;99.90
19732;DHT22;10017;54.350;18.532;2022-10-31T19:24:54;12.40;99.90
19732;DHT22;10017;54.350;18.532;2022-10-31T19:27:28;12.40;99.90
19732;DHT22;10017;54.350;18.532;2022-10-31T19:30:00;12.40;99.90
19732;DHT22;10017;54.350;18.532;2022-10-31T19:32:31;12.40;99.90
19732;DHT22;10017;54.350;18.532;2022-10-31T19:35:04;12.40;99.90
19732;DHT22;10017;54.350;18.532;2022-10-31T19:37:39;12.40;99.90
19732;DHT22;10017;54.350;18.532;2022-10-31T19:40:11;12.40;99.90
19732;DHT22;10017;54.350;18.532;2022-10-31T19:42:43;12.40;99.90
19732;DHT22;10017;54.350;18.532;2022-10-31T19:45:17;12.40;99.90
19732;DHT22;10017;54.350;18.532;2022-10-31T19:47:49;12.40;99.90
19732;DHT22;10017;54.350;18.532;2022-10-31T19:50:21;12.40;99.90
19732;DHT22;10017;54.350;18.532;2022-10-31T19:52:56;12.40;99.90
19732;DHT22;10017;54.350;18.532;2022-10-31T19:55:28;12.40;99.90
19732;DHT22;10017;54.350;18.532;2022-10-31T19:58:00;12.40;99.90
19732;DHT22;10017;54.350;18.532;2022-10-31T20:00:33;12.40;99.90
19732;DHT22;10017;54.350;18.532;2022-10-31T20:03:08;12.40;99.90
19732;DHT22;10017;54.350;18.532;2022-10-31T20:05:41;12.40;99.90
19732;DHT22;10017;54.350;18.532;2022-10-31T20:08:14;12.40;99.90
19732;DHT22;10017;54.350;18.532;2022-10-31T20:10:58;12.40;99.90
19732;DHT22;10017;54.350;18.532;2022-10-31T20:13:33;12.40;99.90
19732;DHT22;10017;54.350;18.532;2022-10-31T20:16:06;12.40;99.90
19732;DHT22;10017;54.350;18.532;2022-10-31T20:18:40;12.40;99.90
19732;DHT22;10017;54.350;18.532;2022-10-31T20:21:13;12.40;99.90
19732;DHT22;10017;54.350;18.532;2022-10-31T20:23:45;12.40;99.90
19732;DHT22;10017;54.350;18.532;2022-10-31T20:26:18;12.40;99.90
19732;DHT22;10017;54.350;18.532;2022-10-31T20:28:50;12.40;99.90
19732;DHT22;10017;54.350;18.532;2022-10-31T20:31:25;12.40;99.90
19732;DHT22;10017;54.350;18.532;2022-10-31T20:33:57;12.40;99.90
19732;DHT22;10017;54.350;18.532;2022-10-31T20:36:29;12.40;99.90
19732;DHT22;10017;54.350;18.532;2022-10-31T20:39:02;12.40;99.90
19732;DHT22;10017;54.350;18.532;2022-10-31T20:41:40;12.30;99.90
19732;DHT22;10017;54.350;18.532;2022-10-31T20:44:14;12.40;99.90
19732;DHT22;10017;54.350;18.532;2022-10-31T20:46:48;12.40;99.90
19732;DHT22;10017;54.350;18.532;2022-10-31T20:49:20;12.40;99.90
19732;DHT22;10017;54.350;18.532;2022-10-31T20:51:51;12.40;99.90
19732;DHT22;10017;54.350;18.532;2022-10-31T20:54:23;12.30;99.90
19732;DHT22;10017;54.350;18.532;2022-10-31T20:56:55;12.30;99.90
19732;DHT22;10017;54.350;18.532;2022-10-31T20:59:27;12.30;99.90
19732;DHT22;10017;54.350;18.532;2022-10-31T21:01:59;12.40;99.90
19732;DHT22;10017;54.350;18.532;2022-10-31T21:04:31;12.30;99.90
19732;DHT22;10017;54.350;18.532;2022-10-31T21:07:03;12.30;99.90
19732;DHT22;10017;54.350;18.532;2022-10-31T21:09:37;12.30;99.90
19732;DHT22;10017;54.350;18.532;2022-10-31T21:12:09;12.40;99.90
19732;DHT22;10017;54.350;18.532;2022-10-31T21:14:41;12.30;99.90
19732;DHT22;10017;54.350;18.532;2022-10-31T21:17:14;12.40;99.90
19732;DHT22;10017;54.350;18.532;2022-10-31T21:19:46;12.30;99.90
19732;DHT22;10017;54.350;18.532;2022-10-31T21:22:20;12.40;99.90
19732;DHT22;10017;54.350;18.532;2022-10-31T21:24:52;12.30;99.90
19732;DHT22;10017;54.350;18.532;2022-10-31T21:27:24;12.40;99.90
19732;DHT22;10017;54.350;18.532;2022-10-31T21:29:56;12.30;99.90
19732;DHT22;10017;54.350;18.532;2022-10-31T21:32:28;12.30;99.90
19732;DHT22;10017;54.350;18.532;2022-10-31T21:35:04;12.30;99.90
19732;DHT22;10017;54.350;18.532;2022-10-31T21:37:36;12.30;99.90
19732;DHT22;10017;54.350;18.532;2022-10-31T21:40:08;12.30;99.90
19732;DHT22;10017;54.350;18.532;2022-10-31T21:42:40;12.30;99.90
19732;DHT22;10017;54.350;18.532;2022-10-31T21:45:11;12.30;99.90
19732;DHT22;10017;54.350;18.532;2022-10-31T21:47:43;12.30;99.90
19732;DHT22;10017;54.350;18.532;2022-10-31T21:50:15;12.30;99.90
19732;DHT22;10017;54.350;18.532;2022-10-31T21:52:50;12.30;99.90
19732;DHT22;10017;54.350;18.532;2022-10-31T21:55:25;12.20;99.90
19732;DHT22;10017;54.350;18.532;2022-10-31T21:57:56;12.20;99.90
19732;DHT22;10017;54.350;18.532;2022-10-31T22:00:28;12.20;99.90
19732;DHT22;10017;54.350;18.532;2022-10-31T22:03:01;12.20;99.90
19732;DHT22;10017;54.350;18.532;2022-10-31T22:05:33;12.20;99.90
19732;DHT22;10017;54.350;18.532;2022-10-31T22:08:05;12.20;99.90
19732;DHT22;10017;54.350;18.532;2022-10-31T22:10:41;12.20;99.90
19732;DHT22;10017;54.350;18.532;2022-10-31T22:13:13;12.10;99.90
19732;DHT22;10017;54.350;18.532;2022-10-31T22:15:45;12.10;99.90
19732;DHT22;10017;54.350;18.532;2022-10-31T22:18:17;12.10;99.90
19732;DHT22;10017;54.350;18.532;2022-10-31T22:20:48;12.00;99.90
19732;DHT22;10017;54.350;18.532;2022-10-31T22:23:23;12.00;99.90
19732;DHT22;10017;54.350;18.532;2022-10-31T22:25:54;12.00;99.90
19732;DHT22;10017;54.350;18.532;2022-10-31T22:28:30;12.00;99.90
19732;DHT22;10017;54.350;18.532;2022-10-31T22:31:05;12.00;99.90
19732;DHT22;10017;54.350;18.532;2022-10-31T22:33:37;12.00;99.90
19732;DHT22;10017;54.350;18.532;2022-10-31T22:36:12;11.90;99.90
19732;DHT22;10017;54.350;18.532;2022-10-31T22:38:44;11.90;99.90
19732;DHT22;10017;54.350;18.532;2022-10-31T22:41:26;11.90;99.90
19732;DHT22;10017;54.350;18.532;2022-10-31T22:44:00;11.80;99.90
19732;DHT22;10017;54.350;18.532;2022-10-31T22:46:34;11.80;99.90
19732;DHT22;10017;54.350;18.532;2022-10-31T22:49:08;11.70;99.90
19732;DHT22;10017;54.350;18.532;2022-10-31T22:51:41;11.70;99.90
19732;DHT22;10017;54.350;18.532;2022-10-31T22:54:14;11.70;99.90
19732;DHT22;10017;54.350;18.532;2022-10-31T22:56:46;11.70;99.90
19732;DHT22;10017;54.350;18.532;2022-10-31T22:59:18;11.70;99.90
19732;DHT22;10017;54.350;18.532;2022-10-31T23:01:49;11.60;99.90
19732;DHT22;10017;54.350;18.532;2022-10-31T23:04:21;11.60;99.90
19732;DHT22;10017;54.350;18.532;2022-10-31T23:06:55;11.60;99.90